createdAt,value
2022-10-06T00:00:24.808Z,34.27
2022-10-06T00:02:26.598Z,34.11
2022-10-06T00:04:28.298Z,34.24
2022-10-06T00:06:29.942Z,34.26
2022-10-06T00:08:32.829Z,34.15
2022-10-06T00:10:34.494Z,34.25
2022-10-06T00:12:47.034Z,34.78
2022-10-06T00:14:48.741Z,34.15
2022-10-06T00:16:50.487Z,34.47
2022-10-06T00:18:52.210Z,34.34
2022-10-06T00:20:57.430Z,34.48
2022-10-06T00:22:59.103Z,34.52
2022-10-06T00:25:00.800Z,34.26
2022-10-06T00:27:02.444Z,34.41
2022-10-06T00:29:04.144Z,34.31
2022-10-06T00:31:05.994Z,34.51
2022-10-06T00:33:07.721Z,34.38
2022-10-06T00:35:09.380Z,34.38
2022-10-06T00:37:11.045Z,34.50
2022-10-06T00:39:12.799Z,34.28
2022-10-06T00:41:15.542Z,34.45
2022-10-06T00:43:55.195Z,34.16
2022-10-06T00:45:56.971Z,34.13
2022-10-06T00:48:00.926Z,34.44
2022-10-06T00:50:02.657Z,34.45
2022-10-06T00:52:16.850Z,34.55
2022-10-06T00:54:18.580Z,34.38
2022-10-06T00:56:20.349Z,34.18
2022-10-06T00:58:22.013Z,34.23
2022-10-06T01:00:23.670Z,34.42
2022-10-06T01:02:27.808Z,34.23
2022-10-06T01:04:36.602Z,34.47
2022-10-06T01:07:04.657Z,34.38
2022-10-06T01:09:06.384Z,34.42
2022-10-06T01:11:12.183Z,34.18
2022-10-06T01:13:13.912Z,34.36
2022-10-06T01:15:16.278Z,34.35
2022-10-06T01:17:27.332Z,34.19
2022-10-06T01:19:31.906Z,34.09
2022-10-06T01:21:43.423Z,34.10
2022-10-06T01:23:45.111Z,34.36
2022-10-06T01:25:46.883Z,34.22
2022-10-06T01:27:49.670Z,34.31
2022-10-06T01:29:54.491Z,34.13
2022-10-06T01:31:56.252Z,34.40
2022-10-06T01:33:57.994Z,34.36
2022-10-06T01:35:59.687Z,34.60
2022-10-06T01:38:01.437Z,34.35
2022-10-06T01:40:03.262Z,34.51
2022-10-06T01:42:05.231Z,34.15
2022-10-06T01:44:07.036Z,34.55
2022-10-06T01:46:08.737Z,34.15
2022-10-06T01:48:10.484Z,34.41
2022-10-06T01:50:12.223Z,34.21
2022-10-06T01:52:13.909Z,34.58
2022-10-06T01:54:15.554Z,34.37
2022-10-06T01:56:17.335Z,34.49
2022-10-06T01:58:19.017Z,34.36
2022-10-06T02:00:20.759Z,34.01
2022-10-06T02:02:22.476Z,34.19
2022-10-06T02:04:24.194Z,34.49
2022-10-06T02:06:25.972Z,34.30
2022-10-06T02:08:28.102Z,34.22
2022-10-06T02:10:30.092Z,34.49
2022-10-06T02:12:32.062Z,34.45
2022-10-06T02:14:33.775Z,34.41
2022-10-06T02:16:35.448Z,34.40
2022-10-06T02:18:37.190Z,34.11
2022-10-06T02:20:38.886Z,34.25
2022-10-06T02:22:40.627Z,34.41
2022-10-06T02:24:42.379Z,34.44
2022-10-06T02:26:44.074Z,34.48
2022-10-06T02:28:46.426Z,34.38
2022-10-06T02:30:48.213Z,34.71
2022-10-06T02:32:49.886Z,34.61
2022-10-06T02:34:51.577Z,34.63
2022-10-06T02:36:53.336Z,34.57
2022-10-06T02:38:55.046Z,34.39
2022-10-06T02:40:56.749Z,34.78
2022-10-06T02:42:58.449Z,34.73
2022-10-06T02:45:00.166Z,34.36
2022-10-06T02:47:01.887Z,34.62
2022-10-06T02:49:03.745Z,34.33
2022-10-06T02:51:11.032Z,34.22
2022-10-06T02:53:12.689Z,34.60
2022-10-06T02:55:14.332Z,34.42
2022-10-06T02:57:15.979Z,34.59
2022-10-06T02:59:17.801Z,34.33
2022-10-06T03:01:28.723Z,34.67
2022-10-06T03:03:31.226Z,34.58
2022-10-06T03:05:32.892Z,34.40
2022-10-06T03:07:34.576Z,34.73
2022-10-06T03:09:36.253Z,34.52
2022-10-06T03:11:39.692Z,34.60
2022-10-06T03:13:41.391Z,34.73
2022-10-06T03:15:43.203Z,34.75
2022-10-06T03:17:48.845Z,34.61
2022-10-06T03:19:50.624Z,34.78
2022-10-06T03:21:52.311Z,34.68
2022-10-06T03:25:57.057Z,35.21
2022-10-06T03:27:58.796Z,35.28
2022-10-06T03:30:00.816Z,34.75
2022-10-06T03:32:02.483Z,34.81
2022-10-06T03:34:04.293Z,34.89
2022-10-06T03:36:07.713Z,35.32
2022-10-06T03:38:09.367Z,35.08
2022-10-06T03:40:11.053Z,35.24
2022-10-06T03:42:12.768Z,35.29
2022-10-06T03:44:14.529Z,35.29
2022-10-06T03:46:17.750Z,35.12
2022-10-06T03:48:19.424Z,35.10
2022-10-06T03:50:21.161Z,35.24
2022-10-06T03:52:26.041Z,35.52
2022-10-06T03:54:27.922Z,35.58
2022-10-06T03:56:33.889Z,35.46
2022-10-06T03:58:36.766Z,34.97
2022-10-06T04:00:38.517Z,35.17
2022-10-06T04:02:40.210Z,35.03
2022-10-06T04:04:41.891Z,35.09
2022-10-06T04:06:43.855Z,35.07
2022-10-06T04:08:48.434Z,35.49
2022-10-06T04:10:50.209Z,34.98
2022-10-06T04:12:51.870Z,35.36
2022-10-06T04:14:56.590Z,35.22
2022-10-06T04:17:01.613Z,34.96
2022-10-06T04:19:05.038Z,34.86
2022-10-06T04:21:06.696Z,35.45
2022-10-06T04:23:08.900Z,35.29
2022-10-06T04:25:10.636Z,34.97
2022-10-06T04:27:12.342Z,35.04
2022-10-06T04:29:14.310Z,35.56
2022-10-06T04:31:16.832Z,35.58
2022-10-06T04:33:18.612Z,35.26
2022-10-06T04:35:20.367Z,35.52
2022-10-06T04:37:22.083Z,35.63
2022-10-06T04:39:23.719Z,35.60
2022-10-06T04:41:27.032Z,35.63
2022-10-06T04:43:28.805Z,35.78
2022-10-06T04:45:30.505Z,35.40
2022-10-06T04:47:32.390Z,35.53
2022-10-06T04:49:34.100Z,35.25
2022-10-06T04:51:35.726Z,35.29
2022-10-06T04:53:37.397Z,35.43
2022-10-06T04:55:39.118Z,35.23
2022-10-06T04:57:40.822Z,35.37
2022-10-06T04:59:42.530Z,35.41
2022-10-06T05:01:44.412Z,35.53
2022-10-06T05:03:46.559Z,35.18
2022-10-06T05:05:48.245Z,35.22
2022-10-06T05:07:49.994Z,35.50
2022-10-06T05:09:51.729Z,35.15
2022-10-06T05:11:53.450Z,35.19
2022-10-06T05:13:56.227Z,35.27
2022-10-06T05:16:01.567Z,35.38
2022-10-06T05:18:03.645Z,35.39
2022-10-06T05:20:05.722Z,35.34
2022-10-06T05:22:07.378Z,35.09
2022-10-06T05:24:09.059Z,35.02
2022-10-06T05:26:12.067Z,35.32
2022-10-06T05:28:13.839Z,34.91
2022-10-06T05:30:15.533Z,35.14
2022-10-06T05:32:17.220Z,35.35
2022-10-06T05:34:18.952Z,35.08
2022-10-06T05:36:22.011Z,35.39
2022-10-06T05:38:23.667Z,35.03
2022-10-06T05:40:25.426Z,35.23
2022-10-06T05:42:29.627Z,35.30
2022-10-06T05:44:31.624Z,35.34
2022-10-06T05:46:33.461Z,34.99
2022-10-06T05:48:35.094Z,35.13
2022-10-06T05:50:36.854Z,35.06
2022-10-06T05:52:38.573Z,34.93
2022-10-06T05:54:40.293Z,35.11
2022-10-06T05:56:41.965Z,35.51
2022-10-06T05:58:45.600Z,35.35
2022-10-06T06:00:47.269Z,35.35
2022-10-06T06:02:49.094Z,35.13
2022-10-06T06:04:50.810Z,35.36
2022-10-06T06:06:52.505Z,35.05
2022-10-06T06:08:56.127Z,35.48
2022-10-06T06:11:05.729Z,35.47
2022-10-06T06:13:07.384Z,35.12
2022-10-06T06:15:09.455Z,35.29
2022-10-06T06:17:11.180Z,35.47
2022-10-06T06:19:13.336Z,35.26
2022-10-06T06:21:15.055Z,35.21
2022-10-06T06:23:16.698Z,35.42
2022-10-06T06:25:18.408Z,35.51
2022-10-06T06:27:20.050Z,35.21
2022-10-06T06:29:21.762Z,35.32
2022-10-06T06:31:25.132Z,35.08
2022-10-06T06:33:26.865Z,35.37
2022-10-06T06:35:28.488Z,35.25
2022-10-06T06:37:30.182Z,35.68
2022-10-06T06:39:31.925Z,35.33
2022-10-06T06:41:37.694Z,35.29
2022-10-06T06:43:39.414Z,35.51
2022-10-06T06:45:41.159Z,35.40
2022-10-06T06:47:42.877Z,35.48
2022-10-06T06:49:44.487Z,35.65
2022-10-06T06:51:46.453Z,35.79
2022-10-06T06:53:48.138Z,35.86
2022-10-06T06:55:50.063Z,35.52
2022-10-06T06:57:51.732Z,35.71
2022-10-06T06:59:53.448Z,35.52
2022-10-06T07:01:55.196Z,35.43
2022-10-06T07:03:58.234Z,35.71
2022-10-06T07:06:07.636Z,35.54
2022-10-06T07:08:09.363Z,35.79
2022-10-06T07:10:11.179Z,35.44
2022-10-06T07:12:12.836Z,35.73
2022-10-06T07:14:14.582Z,35.43
2022-10-06T07:16:18.014Z,35.50
2022-10-06T07:18:19.686Z,35.65
2022-10-06T07:20:21.407Z,35.78
2022-10-06T07:22:24.451Z,35.71
2022-10-06T07:24:26.126Z,35.78
2022-10-06T07:26:27.814Z,35.71
2022-10-06T07:28:29.532Z,35.98
2022-10-06T07:30:31.241Z,35.99
2022-10-06T07:32:32.881Z,35.66
2022-10-06T07:34:34.571Z,36.01
2022-10-06T07:36:36.362Z,35.47
2022-10-06T07:38:38.282Z,35.55
2022-10-06T07:40:46.378Z,36.03
2022-10-06T07:42:52.522Z,36.11
2022-10-06T07:44:54.611Z,35.68
2022-10-06T07:46:56.704Z,35.89
2022-10-06T07:48:58.330Z,35.95
2022-10-06T07:50:59.992Z,35.59
2022-10-06T07:53:01.757Z,35.84
2022-10-06T07:55:03.743Z,35.78
2022-10-06T07:57:05.404Z,35.71
2022-10-06T07:59:07.103Z,35.90
2022-10-06T08:01:10.703Z,35.74
2022-10-06T08:03:13.158Z,35.76
2022-10-06T08:05:14.931Z,35.97
2022-10-06T08:07:16.831Z,35.71
2022-10-06T08:09:18.509Z,35.67
2022-10-06T08:11:20.365Z,36.21
2022-10-06T08:13:22.062Z,36.10
2022-10-06T08:15:23.742Z,35.79
2022-10-06T08:17:25.491Z,35.68
2022-10-06T08:19:27.275Z,36.25
2022-10-06T08:21:30.456Z,36.31
2022-10-06T08:23:32.157Z,35.93
2022-10-06T08:25:33.835Z,35.89
2022-10-06T08:27:36.163Z,36.33
2022-10-06T08:29:37.866Z,36.14
2022-10-06T08:31:39.651Z,36.36
2022-10-06T08:33:45.537Z,35.93
2022-10-06T08:35:47.229Z,36.00
2022-10-06T08:37:48.953Z,36.26
2022-10-06T08:39:51.433Z,36.41
2022-10-06T08:41:53.127Z,36.23
2022-10-06T08:44:26.075Z,36.11
2022-10-06T08:46:32.883Z,36.38
2022-10-06T08:48:34.515Z,36.19
2022-10-06T08:51:05.997Z,36.62
2022-10-06T08:53:15.483Z,36.57
2022-10-06T08:55:46.807Z,36.38
2022-10-06T08:57:57.468Z,36.55
2022-10-06T08:59:59.199Z,36.49
2022-10-06T09:02:01.113Z,36.53
2022-10-06T09:04:03.466Z,36.55
2022-10-06T09:06:12.388Z,36.27
2022-10-06T09:08:50.925Z,36.53
2022-10-06T09:10:52.476Z,36.53
2022-10-06T09:13:03.081Z,36.26
2022-10-06T09:15:41.994Z,36.62
2022-10-06T09:17:46.836Z,36.49
2022-10-06T09:19:58.633Z,36.67
2022-10-06T09:22:00.484Z,36.54
2022-10-06T09:24:06.547Z,36.58
2022-10-06T09:26:15.155Z,36.30
2022-10-06T09:28:16.863Z,36.80
2022-10-06T09:30:18.886Z,36.70
2022-10-06T09:32:22.065Z,36.84
2022-10-06T09:34:29.421Z,36.77
2022-10-06T09:36:31.560Z,36.62
2022-10-06T09:38:54.431Z,36.41
2022-10-06T09:40:56.131Z,36.57
2022-10-06T09:42:57.883Z,36.96
2022-10-06T09:45:23.025Z,37.11
2022-10-06T09:47:30.707Z,36.75
2022-10-06T09:49:32.349Z,37.00
2022-10-06T09:51:34.074Z,36.66
2022-10-06T09:53:37.769Z,36.64
2022-10-06T09:56:01.326Z,36.82
2022-10-06T09:58:04.014Z,36.89
2022-10-06T10:00:28.593Z,36.60
2022-10-06T10:02:33.988Z,37.02
2022-10-06T10:04:37.940Z,36.95
2022-10-06T10:06:39.655Z,37.05
2022-10-06T10:08:41.324Z,36.97
2022-10-06T10:11:07.984Z,36.97
2022-10-06T10:13:23.832Z,36.73
2022-10-06T10:15:34.083Z,36.91
2022-10-06T10:17:45.727Z,36.74
2022-10-06T10:19:52.226Z,36.68
2022-10-06T10:21:54.135Z,37.24
2022-10-06T10:23:59.153Z,37.10
2022-10-06T10:26:45.057Z,37.15
2022-10-06T10:29:23.713Z,36.88
2022-10-06T10:31:42.863Z,36.92
2022-10-06T10:33:59.503Z,37.04
2022-10-06T10:36:13.380Z,37.17
2022-10-06T10:38:24.407Z,37.15
2022-10-06T10:40:29.330Z,37.32
2022-10-06T10:42:37.886Z,37.32
2022-10-06T10:44:43.256Z,37.31
2022-10-06T10:46:49.825Z,37.02
2022-10-06T10:48:57.353Z,36.99
2022-10-06T10:51:33.086Z,37.33
2022-10-06T10:53:40.320Z,37.10
2022-10-06T10:55:45.899Z,37.04
2022-10-06T10:57:47.629Z,37.37
2022-10-06T11:00:09.149Z,37.54
2022-10-06T11:02:20.737Z,37.28
2022-10-06T11:04:22.532Z,37.18
2022-10-06T11:06:27.013Z,37.39
2022-10-06T11:09:00.333Z,37.30
2022-10-06T11:11:04.489Z,37.44
2022-10-06T11:13:27.328Z,37.61
2022-10-06T11:15:52.649Z,37.60
2022-10-06T11:17:54.949Z,37.42
2022-10-06T11:20:14.651Z,37.17
2022-10-06T11:22:46.788Z,37.45
2022-10-06T11:25:11.103Z,37.46
2022-10-06T11:27:22.385Z,37.40
2022-10-06T11:29:52.969Z,37.76
2022-10-06T11:32:07.694Z,37.54
2022-10-06T11:34:09.627Z,37.31
2022-10-06T11:36:15.121Z,37.68
2022-10-06T11:38:30.283Z,37.52
2022-10-06T11:40:56.720Z,37.69
2022-10-06T11:43:39.884Z,38.01
2022-10-06T11:45:55.281Z,38.11
2022-10-06T11:48:25.224Z,38.03
2022-10-06T11:50:32.970Z,37.82
2022-10-06T11:52:35.143Z,37.85
2022-10-06T11:54:39.836Z,38.06
2022-10-06T11:56:41.488Z,40.16
2022-10-06T11:58:52.226Z,37.55
2022-10-06T12:00:53.944Z,37.75
2022-10-06T12:02:55.744Z,38.28
2022-10-06T12:05:28.620Z,38.32
2022-10-06T12:07:57.198Z,38.03
2022-10-06T12:10:27.838Z,38.25
2022-10-06T12:12:29.424Z,39.37
2022-10-06T12:17:19.454Z,38.34
2022-10-06T12:19:52.001Z,37.83
2022-10-06T12:22:07.513Z,38.16
2022-10-06T12:24:32.602Z,37.88
2022-10-06T12:26:54.489Z,38.12
2022-10-06T12:29:19.700Z,38.68
2022-10-06T12:31:38.503Z,38.31
2022-10-06T12:33:41.361Z,38.57
2022-10-06T12:35:43.157Z,38.52
2022-10-06T12:37:48.970Z,38.50
2022-10-06T12:39:53.268Z,38.40
2022-10-06T12:42:01.294Z,38.73
2022-10-06T12:44:03.000Z,38.83
2022-10-06T12:46:12.377Z,38.56
2022-10-06T12:48:24.749Z,38.73
2022-10-06T12:50:26.543Z,38.53
2022-10-06T12:52:50.693Z,38.60
2022-10-06T12:54:59.548Z,38.51
2022-10-06T12:57:02.948Z,38.73
2022-10-06T12:59:19.970Z,38.76
2022-10-06T13:01:21.761Z,38.53
2022-10-06T13:03:24.575Z,38.47
2022-10-06T13:05:26.292Z,38.74
2022-10-06T13:07:29.701Z,38.44
2022-10-06T13:09:31.475Z,38.34
2022-10-06T13:11:33.455Z,38.76
2022-10-06T13:13:35.177Z,38.41
2022-10-06T13:15:36.856Z,38.80
2022-10-06T13:17:54.445Z,38.55
2022-10-06T13:19:56.346Z,38.65
2022-10-06T13:22:02.335Z,38.89
2022-10-06T13:24:04.009Z,38.47
2022-10-06T13:26:07.596Z,38.47
2022-10-06T13:28:43.946Z,38.80
2022-10-06T13:30:53.302Z,38.73
2022-10-06T13:32:55.133Z,38.59
2022-10-06T13:34:56.985Z,38.65
2022-10-06T13:36:59.324Z,38.34
2022-10-06T13:39:03.943Z,38.73
2022-10-06T13:41:30.193Z,38.41
2022-10-06T13:43:35.113Z,38.51
2022-10-06T13:45:42.402Z,38.35
2022-10-06T13:47:43.995Z,38.40
2022-10-06T13:49:54.982Z,38.86
2022-10-06T13:51:58.122Z,39.11
2022-10-06T13:54:01.779Z,39.38
2022-10-06T13:56:03.661Z,38.99
2022-10-06T13:58:08.619Z,38.97
2022-10-06T14:00:14.859Z,39.73
2022-10-06T14:02:19.823Z,38.82
2022-10-06T14:04:21.790Z,38.68
2022-10-06T14:06:23.497Z,38.32
2022-10-06T14:08:27.614Z,38.56
2022-10-06T14:10:31.486Z,38.97
2022-10-06T14:12:34.094Z,38.65
2022-10-06T14:14:35.836Z,38.39
2022-10-06T14:16:37.565Z,38.72
2022-10-06T14:18:45.519Z,38.64
2022-10-06T14:20:50.496Z,38.53
2022-10-06T14:22:52.250Z,38.61
2022-10-06T14:24:54.825Z,38.54
2022-10-06T14:27:01.711Z,38.75
2022-10-06T14:29:03.946Z,39.34
2022-10-06T14:31:10.749Z,38.25
2022-10-06T14:33:15.450Z,38.33
2022-10-06T14:35:17.315Z,38.04
2022-10-06T14:37:19.128Z,38.20
2022-10-06T14:39:20.914Z,37.82
2022-10-06T14:41:23.700Z,38.37
2022-10-06T14:43:25.478Z,39.99
2022-10-06T14:45:27.375Z,40.64
2022-10-06T14:47:29.104Z,38.72
2022-10-06T14:49:30.905Z,37.83
2022-10-06T14:51:36.627Z,38.18
2022-10-06T14:53:38.683Z,38.32
2022-10-06T14:55:40.494Z,38.36
2022-10-06T14:57:42.203Z,39.26
2022-10-06T14:59:43.863Z,38.28
2022-10-06T15:01:45.842Z,37.91
2022-10-06T15:03:51.933Z,39.60
2022-10-06T15:05:53.751Z,38.63
2022-10-06T15:07:55.412Z,38.33
2022-10-06T15:09:57.066Z,38.78
2022-10-06T15:11:59.375Z,38.53
2022-10-06T15:14:01.256Z,39.44
2022-10-06T15:16:02.970Z,38.50
2022-10-06T15:18:04.915Z,38.44
2022-10-06T15:20:06.875Z,38.33
2022-10-06T15:22:08.616Z,39.24
2022-10-06T15:24:13.306Z,38.51
2022-10-06T15:26:15.298Z,38.67
2022-10-06T15:28:18.679Z,38.73
2022-10-06T15:30:23.098Z,38.86
2022-10-06T15:32:25.058Z,39.01
2022-10-06T15:34:28.229Z,38.85
2022-10-06T15:36:30.848Z,39.22
2022-10-06T15:38:35.237Z,38.46
2022-10-06T15:40:36.821Z,38.03
2022-10-06T15:42:38.619Z,39.29
2022-10-06T15:44:40.583Z,38.53
2022-10-06T15:46:44.187Z,38.85
2022-10-06T15:48:46.087Z,38.82
2022-10-06T15:50:48.054Z,38.58
2022-10-06T15:52:49.680Z,38.74
2022-10-06T15:54:51.378Z,38.36
2022-10-06T15:56:54.797Z,38.23
2022-10-06T15:58:56.769Z,37.76
2022-10-06T16:00:58.447Z,38.03
2022-10-06T16:03:00.329Z,37.37
2022-10-06T16:05:02.531Z,36.98
2022-10-06T16:07:07.559Z,36.83
2022-10-06T16:09:10.805Z,36.57
2022-10-06T16:11:12.505Z,36.33
2022-10-06T16:13:14.732Z,36.65
2022-10-06T16:15:16.431Z,36.23
2022-10-06T16:17:18.916Z,36.49
2022-10-06T16:19:20.854Z,36.50
2022-10-06T16:21:22.806Z,36.33
2022-10-06T16:23:25.064Z,36.76
2022-10-06T16:25:27.069Z,36.30
2022-10-06T16:27:33.197Z,36.96
2022-10-06T16:29:35.204Z,36.09
2022-10-06T16:31:36.986Z,36.32
2022-10-06T16:33:39.017Z,37.11
2022-10-06T16:35:40.704Z,35.57
2022-10-06T16:37:42.633Z,35.12
2022-10-06T16:39:44.439Z,34.41
2022-10-06T16:41:46.435Z,34.19
2022-10-06T16:43:49.551Z,34.45
2022-10-06T16:46:02.511Z,34.33
2022-10-06T16:48:04.912Z,33.95
2022-10-06T16:50:07.452Z,34.86
2022-10-06T16:52:09.359Z,33.86
2022-10-06T16:54:12.919Z,33.96
2022-10-06T16:56:28.520Z,34.28
2022-10-06T16:58:47.080Z,34.50
2022-10-06T17:00:56.758Z,33.88
2022-10-06T17:02:58.568Z,33.76
2022-10-06T17:05:00.326Z,34.33
2022-10-06T17:07:02.425Z,34.44
2022-10-06T17:09:04.064Z,33.81
2022-10-06T17:11:12.954Z,33.50
2022-10-06T17:13:14.850Z,33.67
2022-10-06T17:15:17.331Z,33.44
2022-10-06T17:17:19.354Z,33.94
2022-10-06T17:19:22.686Z,33.46
2022-10-06T17:21:45.014Z,33.93
2022-10-06T17:23:46.756Z,34.09
2022-10-06T17:25:58.600Z,33.62
2022-10-06T17:28:00.578Z,33.62
2022-10-06T17:30:02.452Z,33.74
2022-10-06T17:32:04.285Z,34.01
2022-10-06T17:34:10.872Z,34.20
2022-10-06T17:36:16.449Z,34.02
2022-10-06T17:38:18.611Z,34.04
2022-10-06T17:40:20.526Z,34.45
2022-10-06T17:42:22.333Z,34.27
2022-10-06T17:44:24.402Z,33.69
2022-10-06T17:46:26.455Z,34.25
2022-10-06T17:48:28.321Z,34.28
2022-10-06T17:50:30.066Z,35.19
2022-10-06T17:52:31.950Z,36.56
2022-10-06T17:54:33.868Z,37.00
2022-10-06T17:56:35.776Z,37.13
2022-10-06T17:58:40.911Z,37.33
2022-10-06T18:00:42.786Z,37.89
2022-10-06T18:02:45.409Z,37.70
2022-10-06T18:04:47.506Z,37.69
2022-10-06T18:06:51.807Z,37.86
2022-10-06T18:08:54.334Z,37.89
2022-10-06T18:10:59.669Z,38.06
2022-10-06T18:13:01.606Z,38.08
2022-10-06T18:15:03.537Z,38.43
2022-10-06T18:17:05.298Z,38.29
2022-10-06T18:19:11.845Z,39.00
2022-10-06T18:21:13.821Z,38.86
2022-10-06T18:23:16.346Z,38.93
2022-10-06T18:25:18.028Z,39.10
2022-10-06T18:27:19.854Z,39.04
2022-10-06T18:29:23.152Z,39.16
2022-10-06T18:31:24.933Z,38.99
2022-10-06T18:38:17.309Z,39.72
2022-10-06T18:40:18.999Z,39.69
2022-10-06T18:42:20.839Z,39.30
2022-10-06T18:44:22.520Z,39.67
2022-10-06T18:46:24.420Z,39.83
2022-10-06T18:48:26.216Z,39.90
2022-10-06T18:50:28.071Z,39.65
2022-10-06T18:52:29.766Z,39.54
2022-10-06T18:54:31.423Z,39.72
2022-10-06T18:56:34.826Z,39.83
2022-10-06T18:58:40.434Z,39.81
2022-10-06T19:00:42.449Z,39.64
2022-10-06T19:02:48.325Z,39.80
2022-10-06T19:04:50.405Z,39.95
2022-10-06T19:06:53.860Z,40.29
2022-10-06T19:08:57.284Z,39.86
2022-10-06T19:11:05.445Z,39.87
2022-10-06T19:13:07.342Z,40.27
2022-10-06T19:15:09.259Z,40.10
2022-10-06T19:17:11.481Z,40.10
2022-10-06T19:19:15.095Z,40.10
2022-10-06T19:21:16.857Z,40.20
2022-10-06T19:23:18.649Z,40.79
2022-10-06T19:25:20.377Z,40.36
2022-10-06T19:27:22.906Z,40.51
2022-10-06T19:29:26.271Z,40.58
2022-10-06T19:31:28.233Z,40.74
2022-10-06T19:33:30.642Z,40.77
2022-10-06T19:35:32.428Z,40.64
2022-10-06T19:37:34.201Z,40.72
2022-10-06T19:39:39.251Z,40.65
2022-10-06T19:41:41.355Z,40.71
2022-10-06T19:43:43.144Z,40.87
2022-10-06T19:45:46.331Z,40.69
2022-10-06T19:47:48.260Z,41.14
2022-10-06T19:49:49.935Z,40.83
2022-10-06T19:51:51.742Z,41.14
2022-10-06T19:53:53.493Z,40.94
2022-10-06T19:56:01.518Z,40.79
2022-10-06T19:58:03.250Z,40.83
2022-10-06T20:00:06.334Z,41.02
2022-10-06T20:02:08.140Z,41.28
2022-10-06T20:04:09.960Z,40.78
2022-10-06T20:06:13.099Z,41.21
2022-10-06T20:08:14.841Z,40.89
2022-10-06T20:10:16.639Z,40.92
2022-10-06T20:12:23.636Z,41.02
2022-10-06T20:14:26.595Z,41.02
2022-10-06T20:16:28.437Z,41.03
2022-10-06T20:18:34.013Z,41.06
2022-10-06T20:20:35.792Z,41.03
2022-10-06T20:22:37.513Z,40.84
2022-10-06T20:24:39.177Z,40.86
2022-10-06T20:26:41.719Z,40.97
2022-10-06T20:28:44.492Z,40.54
2022-10-06T20:30:46.383Z,40.99
2022-10-06T20:32:48.098Z,40.72
2022-10-06T20:34:49.782Z,40.78
2022-10-06T20:36:55.693Z,40.60
2022-10-06T20:38:58.101Z,40.72
2022-10-06T20:40:59.813Z,40.90
2022-10-06T20:43:01.511Z,40.87
2022-10-06T20:45:03.407Z,40.96
2022-10-06T20:47:05.204Z,40.99
2022-10-06T20:49:11.556Z,40.95
2022-10-06T20:51:13.269Z,40.69
2022-10-06T20:53:14.960Z,40.92
2022-10-06T20:55:16.667Z,41.14
2022-10-06T20:57:18.431Z,40.70
2022-10-06T20:59:21.150Z,40.79
2022-10-06T21:01:23.049Z,41.11
2022-10-06T21:03:24.792Z,41.25
2022-10-06T21:05:26.474Z,40.80
2022-10-06T21:07:28.239Z,41.01
2022-10-06T21:09:29.867Z,40.91
2022-10-06T21:11:31.496Z,40.89
2022-10-06T21:13:33.127Z,40.79
2022-10-06T21:15:34.954Z,40.92
2022-10-06T21:17:36.641Z,40.93
2022-10-06T21:19:38.256Z,41.25
2022-10-06T21:21:40.067Z,41.36
2022-10-06T21:23:43.558Z,41.35
2022-10-06T21:25:45.322Z,41.22
2022-10-06T21:27:47.211Z,41.26
2022-10-06T21:29:49.045Z,41.43
2022-10-06T21:31:50.784Z,41.30
2022-10-06T21:33:52.716Z,41.04
2022-10-06T21:36:01.268Z,41.29
2022-10-06T21:38:02.939Z,41.32
2022-10-06T21:40:05.001Z,41.61
2022-10-06T21:42:06.698Z,41.41
2022-10-06T21:44:15.626Z,41.62
2022-10-06T21:46:28.080Z,41.53
2022-10-06T21:48:30.369Z,41.55
2022-10-06T21:50:32.077Z,41.23
2022-10-06T21:52:33.760Z,41.49
2022-10-06T21:54:35.503Z,41.46
2022-10-06T21:56:37.445Z,41.64
2022-10-06T21:58:39.116Z,41.50
2022-10-06T22:00:40.793Z,41.39
2022-10-06T22:02:42.578Z,41.56
2022-10-06T22:04:44.296Z,41.74
2022-10-06T22:06:46.026Z,41.41
2022-10-06T22:08:47.721Z,41.50
2022-10-06T22:10:49.481Z,41.64
2022-10-06T22:12:51.173Z,41.78
2022-10-06T22:14:52.904Z,41.60
2022-10-06T22:16:54.618Z,41.33
2022-10-06T22:18:56.342Z,41.45
2022-10-06T22:20:58.165Z,41.95
2022-10-06T22:23:04.053Z,41.88
2022-10-06T22:25:06.868Z,41.88
2022-10-06T22:27:08.639Z,41.74
2022-10-06T22:29:12.682Z,41.77
2022-10-06T22:31:14.982Z,41.44
2022-10-06T22:33:16.861Z,41.48
2022-10-06T22:35:18.534Z,42.46
2022-10-06T22:37:20.212Z,41.69
2022-10-06T22:39:21.971Z,41.99
2022-10-06T22:41:23.788Z,42.16
2022-10-06T22:43:25.487Z,41.98
2022-10-06T22:45:27.209Z,41.80
2022-10-06T22:47:29.012Z,42.19
2022-10-06T22:49:30.735Z,41.87
2022-10-06T22:51:33.428Z,41.70
2022-10-06T22:53:35.237Z,41.95
2022-10-06T22:55:36.894Z,42.14
2022-10-06T22:57:38.680Z,42.00
2022-10-06T22:59:40.402Z,42.31
2022-10-06T23:01:42.125Z,41.88
2022-10-06T23:03:43.861Z,42.05
2022-10-06T23:05:58.815Z,42.27
2022-10-06T23:08:00.510Z,42.15
2022-10-06T23:10:02.200Z,41.77
2022-10-06T23:12:03.996Z,41.89
2022-10-06T23:14:05.678Z,42.26
2022-10-06T23:16:12.077Z,41.79
2022-10-06T23:18:13.996Z,42.22
2022-10-06T23:20:15.822Z,42.10
2022-10-06T23:22:17.542Z,41.93
2022-10-06T23:24:19.279Z,42.26
2022-10-06T23:26:21.325Z,41.97
2022-10-06T23:28:23.154Z,42.05
2022-10-06T23:30:24.854Z,42.00
2022-10-06T23:32:26.636Z,42.23
2022-10-06T23:34:28.601Z,41.67
2022-10-06T23:36:30.328Z,42.01
2022-10-06T23:38:32.046Z,41.88
2022-10-06T23:40:33.732Z,41.79
2022-10-06T23:42:35.384Z,41.59
2022-10-06T23:44:37.428Z,41.71
2022-10-06T23:46:39.147Z,41.75
2022-10-06T23:48:40.864Z,41.71
2022-10-06T23:50:42.548Z,42.02
2022-10-06T23:52:44.301Z,41.80
2022-10-06T23:54:45.973Z,41.95
2022-10-06T23:56:47.628Z,41.89
2022-10-06T23:58:52.171Z,41.71
